createdAt,value
2016-10-05T00:00:53.627Z,99.99
2016-10-05T00:01:53.598Z,99.99
2016-10-05T00:02:53.575Z,99.99
2016-10-05T00:03:53.577Z,99.99
2016-10-05T00:04:53.557Z,99.99
2016-10-05T00:05:53.531Z,99.99
2016-10-05T00:06:53.527Z,99.99
2016-10-05T00:07:53.500Z,99.99
2016-10-05T00:08:53.482Z,99.99
2016-10-05T00:09:53.463Z,99.99
2016-10-05T00:10:53.454Z,99.99
2016-10-05T00:11:53.423Z,99.99
2016-10-05T00:12:53.411Z,99.99
2016-10-05T00:13:53.407Z,99.99
2016-10-05T00:14:53.581Z,99.99
2016-10-05T00:15:53.378Z,99.99
2016-10-05T00:16:53.351Z,99.99
2016-10-05T00:17:53.331Z,99.99
2016-10-05T00:18:53.306Z,99.99
2016-10-05T00:19:53.307Z,99.99
2016-10-05T00:20:53.292Z,99.99
2016-10-05T00:21:53.268Z,99.99
2016-10-05T00:22:53.246Z,99.99
2016-10-05T00:23:53.226Z,99.99
2016-10-05T00:24:53.218Z,99.99
2016-10-05T00:25:53.186Z,99.99
2016-10-05T00:26:53.191Z,99.99
2016-10-05T00:27:53.173Z,99.99
2016-10-05T00:28:53.135Z,99.99
2016-10-05T00:29:53.119Z,99.99
2016-10-05T00:30:53.100Z,99.99
2016-10-05T00:31:53.093Z,99.99
2016-10-05T00:32:53.076Z,99.99
2016-10-05T00:33:53.073Z,99.99
2016-10-05T00:34:53.056Z,99.99
2016-10-05T00:35:53.037Z,99.99
2016-10-05T00:36:53.014Z,99.99
2016-10-05T00:37:52.986Z,99.99
2016-10-05T00:38:52.982Z,99.99
2016-10-05T00:39:52.951Z,99.99
2016-10-05T00:40:52.955Z,99.99
2016-10-05T00:41:52.941Z,99.99
2016-10-05T00:42:52.906Z,99.99
2016-10-05T00:43:52.881Z,99.99
2016-10-05T00:44:52.885Z,99.99
2016-10-05T00:45:52.866Z,99.99
2016-10-05T00:46:52.840Z,99.99
2016-10-05T00:47:52.833Z,99.99
2016-10-05T00:48:52.815Z,99.99
2016-10-05T00:49:52.794Z,99.99
2016-10-05T00:50:52.776Z,99.99
2016-10-05T00:51:52.751Z,99.99
2016-10-05T00:52:52.744Z,99.99
2016-10-05T00:53:52.714Z,99.99
2016-10-05T00:54:52.711Z,99.99
2016-10-05T00:55:52.694Z,99.99
2016-10-05T00:56:52.676Z,99.99
2016-10-05T00:57:52.641Z,99.99
2016-10-05T00:58:52.643Z,99.99
2016-10-05T00:59:52.611Z,99.99
2016-10-05T01:00:52.595Z,99.99
2016-10-05T01:01:52.583Z,99.99
2016-10-05T01:02:52.554Z,99.99
2016-10-05T01:03:52.547Z,99.99
2016-10-05T01:04:52.518Z,99.99
2016-10-05T01:05:52.507Z,99.99
2016-10-05T01:06:52.491Z,99.99
2016-10-05T01:07:52.849Z,99.99
2016-10-05T01:08:52.448Z,99.99
2016-10-05T01:09:52.431Z,99.99
2016-10-05T01:10:52.427Z,99.99
2016-10-05T01:11:52.397Z,99.99
2016-10-05T01:12:52.395Z,99.99
2016-10-05T01:13:52.363Z,99.99
2016-10-05T01:14:52.351Z,99.99
2016-10-05T01:15:52.345Z,99.99
2016-10-05T01:16:52.311Z,99.99
2016-10-05T01:17:52.316Z,99.99
2016-10-05T01:18:52.290Z,99.99
2016-10-05T01:19:52.274Z,99.99
2016-10-05T01:20:52.257Z,99.99
2016-10-05T01:21:52.241Z,99.99
2016-10-05T01:22:52.215Z,99.99
2016-10-05T01:23:52.199Z,99.99
2016-10-05T01:24:52.198Z,99.99
2016-10-05T01:25:52.178Z,99.99
2016-10-05T01:26:52.149Z,99.99
2016-10-05T01:27:52.131Z,99.99
2016-10-05T01:28:52.121Z,99.99
2016-10-05T01:29:52.111Z,99.99
2016-10-05T01:30:52.093Z,99.99
2016-10-05T01:31:52.067Z,99.99
2016-10-05T01:32:52.041Z,99.99
2016-10-05T01:33:52.035Z,99.99
2016-10-05T01:34:52.012Z,99.99
2016-10-05T01:35:51.989Z,99.99
2016-10-05T01:36:51.970Z,99.99
2016-10-05T01:37:51.969Z,99.99
2016-10-05T01:38:51.956Z,99.99
2016-10-05T01:39:51.928Z,99.99
2016-10-05T01:40:51.910Z,99.99
2016-10-05T01:41:51.897Z,99.99
2016-10-05T01:42:51.875Z,99.99
2016-10-05T01:43:51.864Z,99.99
2016-10-05T01:44:51.834Z,99.99
2016-10-05T01:45:51.839Z,99.99
2016-10-05T01:46:51.798Z,99.99
2016-10-05T01:47:51.784Z,99.99
2016-10-05T01:48:51.777Z,99.99
2016-10-05T01:49:51.754Z,99.99
2016-10-05T01:50:51.752Z,99.99
2016-10-05T01:51:51.725Z,99.99
2016-10-05T01:52:51.705Z,99.99
2016-10-05T01:53:51.695Z,99.99
2016-10-05T01:54:51.673Z,99.99
2016-10-05T01:55:51.644Z,99.99
2016-10-05T01:56:51.650Z,99.99
2016-10-05T01:57:51.630Z,99.99
2016-10-05T01:58:51.594Z,99.99
2016-10-05T01:59:51.591Z,99.99
2016-10-05T02:00:51.576Z,99.99
2016-10-05T02:01:51.544Z,99.99
2016-10-05T02:02:51.545Z,99.99
2016-10-05T02:03:51.521Z,99.99
2016-10-05T02:04:51.490Z,99.99
2016-10-05T02:05:51.487Z,99.99
2016-10-05T02:06:51.477Z,99.99
2016-10-05T02:07:51.452Z,99.99
2016-10-05T02:08:51.436Z,99.99
2016-10-05T02:09:51.412Z,99.99
2016-10-05T02:10:51.388Z,99.99
2016-10-05T02:11:51.377Z,99.99
2016-10-05T02:12:51.366Z,99.99
2016-10-05T02:13:51.340Z,99.99
2016-10-05T02:14:51.319Z,99.99
2016-10-05T02:15:51.324Z,99.99
2016-10-05T02:16:51.307Z,99.99
2016-10-05T02:17:51.263Z,99.99
2016-10-05T02:18:51.268Z,99.99
2016-10-05T02:19:51.244Z,99.99
2016-10-05T02:20:51.225Z,99.99
2016-10-05T02:21:51.195Z,99.99
2016-10-05T02:22:51.183Z,99.99
2016-10-05T02:23:51.176Z,99.99
2016-10-05T02:24:51.162Z,99.99
2016-10-05T02:25:51.145Z,99.99
2016-10-05T02:26:51.114Z,99.99
2016-10-05T02:27:51.088Z,99.99
2016-10-05T02:28:51.087Z,99.99
2016-10-05T02:29:51.090Z,99.99
2016-10-05T02:30:51.059Z,99.99
2016-10-05T02:31:51.040Z,99.99
2016-10-05T02:32:51.001Z,99.99
2016-10-05T02:33:50.998Z,99.99
2016-10-05T02:34:50.981Z,99.99
2016-10-05T02:35:50.949Z,99.99
2016-10-05T02:36:50.953Z,99.99
2016-10-05T02:37:50.921Z,99.99
2016-10-05T02:38:50.911Z,99.99
2016-10-05T02:39:50.887Z,99.99
2016-10-05T02:40:50.863Z,99.99
2016-10-05T02:41:50.849Z,99.99
2016-10-05T02:42:50.842Z,99.99
2016-10-05T02:43:50.823Z,99.99
2016-10-05T02:44:50.809Z,99.99
2016-10-05T02:45:50.781Z,99.99
2016-10-05T02:46:50.761Z,99.99
2016-10-05T02:47:50.742Z,99.99
2016-10-05T02:48:50.747Z,99.99
2016-10-05T02:49:50.707Z,99.99
2016-10-05T02:50:50.688Z,99.99
2016-10-05T02:51:50.695Z,99.99
2016-10-05T02:52:50.663Z,99.99
2016-10-05T02:53:50.644Z,99.99
2016-10-05T02:54:50.628Z,99.99
2016-10-05T02:55:50.607Z,99.99
2016-10-05T02:56:50.598Z,99.99
2016-10-05T02:57:50.568Z,99.99
2016-10-05T02:58:50.572Z,99.99
2016-10-05T02:59:50.532Z,99.99
2016-10-05T03:00:50.517Z,99.99
2016-10-05T03:01:50.499Z,99.99
2016-10-05T03:02:50.501Z,99.99
2016-10-05T03:03:50.480Z,99.99
2016-10-05T03:04:50.468Z,99.99
2016-10-05T03:05:50.440Z,99.99
2016-10-05T03:06:50.430Z,99.99
2016-10-05T03:07:50.417Z,99.99
2016-10-05T03:08:50.394Z,99.99
2016-10-05T03:09:50.381Z,99.99
2016-10-05T03:10:50.346Z,99.99
2016-10-05T03:11:50.330Z,99.99
2016-10-05T03:12:50.331Z,99.99
2016-10-05T03:13:50.307Z,99.99
2016-10-05T03:14:50.281Z,99.99
2016-10-05T03:15:50.259Z,99.99
2016-10-05T03:16:50.243Z,99.99
2016-10-05T03:17:50.225Z,99.99
2016-10-05T03:18:50.214Z,99.99
2016-10-05T03:19:50.209Z,99.99
2016-10-05T03:20:50.192Z,99.99
2016-10-05T03:21:50.151Z,99.99
2016-10-05T03:22:50.143Z,99.99
2016-10-05T03:23:50.139Z,99.99
2016-10-05T03:24:50.099Z,99.99
2016-10-05T03:25:50.110Z,99.99
2016-10-05T03:26:50.072Z,99.99
2016-10-05T03:27:50.068Z,99.99
2016-10-05T03:28:50.043Z,99.99
2016-10-05T03:29:50.016Z,99.99
2016-10-05T03:30:49.999Z,99.99
2016-10-05T03:31:49.990Z,99.99
2016-10-05T03:32:49.960Z,99.99
2016-10-05T03:33:49.945Z,99.99
2016-10-05T03:34:49.927Z,99.99
2016-10-05T03:35:49.912Z,99.99
2016-10-05T03:36:49.893Z,99.99
2016-10-05T03:37:49.889Z,99.99
2016-10-05T03:38:49.851Z,99.99
2016-10-05T03:39:49.848Z,99.99
2016-10-05T03:40:49.836Z,99.99
2016-10-05T03:41:49.795Z,99.99
2016-10-05T03:42:50.107Z,99.99
2016-10-05T03:43:49.776Z,99.99
2016-10-05T03:44:49.744Z,99.99
2016-10-05T03:45:50.031Z,99.99
2016-10-05T03:46:49.731Z,99.99
2016-10-05T03:47:49.714Z,99.99
2016-10-05T03:48:49.683Z,99.99
2016-10-05T03:49:49.662Z,99.99
2016-10-05T03:50:49.648Z,99.99
2016-10-05T03:51:49.636Z,99.99
2016-10-05T03:52:49.624Z,99.99
2016-10-05T03:53:49.588Z,99.99
2016-10-05T03:54:49.568Z,99.99
2016-10-05T03:55:49.553Z,99.99
2016-10-05T03:56:49.535Z,99.99
2016-10-05T03:57:49.532Z,99.99
2016-10-05T03:58:49.524Z,99.99
2016-10-05T03:59:49.481Z,99.99
2016-10-05T04:00:49.480Z,99.99
2016-10-05T04:01:49.448Z,99.99
2016-10-05T04:02:49.451Z,99.99
2016-10-05T04:03:49.465Z,99.99
2016-10-05T04:04:49.408Z,99.99
2016-10-05T04:05:49.399Z,99.99
2016-10-05T04:06:49.375Z,99.99
2016-10-05T04:07:49.367Z,99.99
2016-10-05T04:08:49.339Z,99.99
2016-10-05T04:09:49.304Z,99.99
2016-10-05T04:10:49.307Z,99.99
2016-10-05T04:11:49.274Z,99.99
2016-10-05T04:12:49.260Z,99.99
2016-10-05T04:13:49.248Z,99.99
2016-10-05T04:14:49.231Z,99.99
2016-10-05T04:15:49.223Z,99.99
2016-10-05T04:16:49.182Z,99.99
2016-10-05T04:17:49.164Z,99.99
2016-10-05T04:18:49.148Z,99.99
2016-10-05T04:19:49.152Z,99.99
2016-10-05T04:20:49.129Z,99.99
2016-10-05T04:21:49.105Z,99.99
2016-10-05T04:22:49.093Z,99.99
2016-10-05T04:23:49.084Z,99.99
2016-10-05T04:24:49.041Z,99.99
2016-10-05T04:25:49.085Z,99.99
2016-10-05T04:26:49.030Z,99.99
2016-10-05T04:27:49.006Z,99.99
2016-10-05T04:28:48.976Z,99.99
2016-10-05T04:29:48.955Z,99.99
2016-10-05T04:30:48.947Z,99.99
2016-10-05T04:31:48.928Z,99.99
2016-10-05T04:32:48.916Z,99.99
2016-10-05T04:33:48.889Z,99.99
2016-10-05T04:34:48.891Z,99.99
2016-10-05T04:35:48.853Z,99.99
2016-10-05T04:36:48.836Z,99.99
2016-10-05T04:37:48.822Z,99.99
2016-10-05T04:38:48.807Z,99.99
2016-10-05T04:39:48.796Z,99.99
2016-10-05T04:40:48.777Z,99.99
2016-10-05T04:41:48.762Z,99.99
2016-10-05T04:42:48.948Z,99.99
2016-10-05T04:43:48.733Z,99.99
2016-10-05T04:44:48.708Z,99.99
2016-10-05T04:45:48.700Z,99.99
2016-10-05T04:46:48.672Z,99.99
2016-10-05T04:47:48.646Z,99.99
2016-10-05T04:48:48.623Z,99.99
2016-10-05T04:49:48.605Z,99.99
2016-10-05T04:50:48.585Z,99.99
2016-10-05T04:51:48.569Z,99.99
2016-10-05T04:52:48.550Z,99.99
2016-10-05T04:53:48.540Z,99.99
2016-10-05T04:54:48.535Z,99.99
2016-10-05T04:55:48.497Z,99.99
2016-10-05T04:56:48.479Z,99.99
2016-10-05T04:57:48.475Z,99.99
2016-10-05T04:58:48.467Z,99.99
2016-10-05T04:59:48.446Z,99.99
2016-10-05T05:00:48.430Z,99.99
2016-10-05T05:01:48.413Z,99.99
2016-10-05T05:02:48.383Z,99.99
2016-10-05T05:03:48.363Z,99.99
2016-10-05T05:04:48.359Z,99.99
2016-10-05T05:05:48.335Z,99.99
2016-10-05T05:06:48.317Z,99.99
2016-10-05T05:07:48.301Z,99.99
2016-10-05T05:08:48.268Z,99.99
2016-10-05T05:09:48.271Z,99.99
2016-10-05T05:10:48.246Z,99.99
2016-10-05T05:11:48.229Z,99.99
2016-10-05T05:12:48.218Z,99.99
2016-10-05T05:13:48.186Z,99.99
2016-10-05T05:14:48.169Z,99.99
2016-10-05T05:15:48.165Z,99.99
2016-10-05T05:16:48.134Z,99.99
2016-10-05T05:17:48.122Z,99.99
2016-10-05T05:18:48.105Z,99.99
2016-10-05T05:19:48.080Z,99.99
2016-10-05T05:20:48.073Z,99.99
2016-10-05T05:21:48.046Z,99.99
2016-10-05T05:22:48.026Z,99.99
2016-10-05T05:23:48.008Z,99.99
2016-10-05T05:24:47.985Z,99.99
2016-10-05T05:25:47.967Z,99.99
2016-10-05T05:26:47.962Z,99.99
2016-10-05T05:27:47.935Z,99.99
2016-10-05T05:28:47.913Z,99.99
2016-10-05T05:29:47.917Z,99.99
2016-10-05T05:30:47.881Z,99.99
2016-10-05T05:31:47.874Z,99.99
2016-10-05T05:32:47.863Z,99.99
2016-10-05T05:33:47.826Z,99.99
2016-10-05T05:34:47.811Z,99.99
2016-10-05T05:35:47.788Z,99.99
2016-10-05T05:36:47.778Z,99.99
2016-10-05T05:37:47.761Z,99.99
2016-10-05T05:38:47.736Z,99.99
2016-10-05T05:39:47.736Z,99.99
2016-10-05T05:40:47.716Z,99.99
2016-10-05T05:41:47.688Z,99.99
2016-10-05T05:42:47.681Z,99.99
2016-10-05T05:43:47.649Z,99.99
2016-10-05T05:44:47.637Z,99.99
2016-10-05T05:45:47.615Z,99.99
2016-10-05T05:46:47.610Z,99.99
2016-10-05T05:47:47.599Z,99.99
2016-10-05T05:48:47.564Z,99.99
2016-10-05T05:49:47.556Z,99.99
2016-10-05T05:50:47.527Z,99.99
2016-10-05T05:51:47.517Z,99.99
2016-10-05T05:52:47.511Z,99.99
2016-10-05T05:53:47.502Z,99.99
2016-10-05T05:54:47.455Z,99.99
2016-10-05T05:55:47.459Z,99.99
2016-10-05T05:56:47.427Z,99.99
2016-10-05T05:57:47.424Z,99.99
2016-10-05T05:58:47.394Z,99.99
2016-10-05T05:59:47.375Z,99.99
2016-10-05T06:00:47.354Z,99.99
2016-10-05T06:01:47.344Z,99.99
2016-10-05T06:02:47.339Z,99.99
2016-10-05T06:03:47.307Z,99.99
2016-10-05T06:04:47.297Z,99.99
2016-10-05T06:05:47.265Z,99.99
2016-10-05T06:06:47.265Z,99.99
2016-10-05T06:07:47.238Z,99.99
2016-10-05T06:08:47.221Z,99.99
2016-10-05T06:09:47.205Z,99.99
2016-10-05T06:10:47.189Z,99.99
2016-10-05T06:11:47.186Z,99.99
2016-10-05T06:12:47.170Z,99.99
2016-10-05T06:13:47.132Z,99.99
2016-10-05T06:14:47.125Z,99.99
2016-10-05T06:15:47.103Z,99.99
2016-10-05T06:16:47.088Z,99.99
2016-10-05T06:17:47.089Z,99.99
2016-10-05T06:18:47.050Z,99.99
2016-10-05T06:19:47.042Z,99.99
2016-10-05T06:20:47.051Z,99.99
2016-10-05T06:21:47.026Z,99.99
2016-10-05T06:22:47.009Z,99.99
2016-10-05T06:23:46.991Z,99.99
2016-10-05T06:24:46.957Z,99.99
2016-10-05T06:25:46.953Z,99.99
2016-10-05T06:26:46.935Z,99.99
2016-10-05T06:27:46.914Z,99.99
2016-10-05T06:28:46.898Z,99.99
2016-10-05T06:29:46.887Z,99.99
2016-10-05T06:30:46.866Z,99.99
2016-10-05T06:31:46.842Z,99.99
2016-10-05T06:32:46.827Z,99.99
2016-10-05T06:33:46.834Z,99.99
2016-10-05T06:34:46.809Z,99.99
2016-10-05T06:35:46.780Z,99.99
2016-10-05T06:36:46.765Z,99.99
2016-10-05T06:37:46.765Z,99.99
2016-10-05T06:38:46.735Z,99.99
2016-10-05T06:39:46.732Z,99.99
2016-10-05T06:40:46.711Z,99.99
2016-10-05T06:41:46.690Z,99.99
2016-10-05T06:42:46.675Z,99.99
2016-10-05T06:43:46.664Z,99.99
2016-10-05T06:44:46.642Z,99.99
2016-10-05T06:45:46.633Z,99.99
2016-10-05T06:46:46.624Z,99.99
2016-10-05T06:47:46.622Z,99.99
2016-10-05T06:48:46.595Z,99.99
2016-10-05T06:49:46.572Z,99.99
2016-10-05T06:50:46.558Z,99.99
2016-10-05T06:51:46.565Z,99.99
2016-10-05T06:52:46.555Z,99.99
2016-10-05T06:53:46.529Z,99.99
2016-10-05T06:54:46.512Z,99.99
2016-10-05T06:55:46.499Z,99.99
2016-10-05T06:56:46.494Z,99.99
2016-10-05T06:57:46.478Z,99.99
2016-10-05T06:58:46.450Z,99.99
2016-10-05T06:59:46.450Z,99.99
2016-10-05T07:00:46.431Z,99.99
2016-10-05T07:01:46.424Z,99.99
2016-10-05T07:02:46.391Z,99.99
2016-10-05T07:03:46.383Z,99.99
2016-10-05T07:04:46.376Z,99.99
2016-10-05T07:05:46.368Z,99.99
2016-10-05T07:06:46.348Z,99.99
2016-10-05T07:07:46.324Z,99.99
2016-10-05T07:08:46.323Z,99.99
2016-10-05T07:09:46.318Z,99.99
2016-10-05T07:10:46.302Z,99.99
2016-10-05T07:11:46.285Z,99.99
2016-10-05T07:12:46.271Z,99.99
2016-10-05T07:13:46.252Z,99.99
2016-10-05T07:14:46.253Z,99.99
2016-10-05T07:15:46.238Z,99.99
2016-10-05T07:16:46.207Z,99.99
2016-10-05T07:17:46.215Z,99.99
2016-10-05T07:18:46.204Z,99.99
2016-10-05T07:19:46.169Z,99.99
2016-10-05T07:20:46.270Z,99.99
2016-10-05T07:21:46.153Z,99.99
2016-10-05T07:22:46.154Z,99.99
2016-10-05T07:23:46.142Z,99.99
2016-10-05T07:24:46.132Z,99.99
2016-10-05T07:25:46.094Z,99.99
2016-10-05T07:26:46.086Z,99.99
2016-10-05T07:27:46.077Z,99.99
2016-10-05T07:28:46.073Z,99.99
2016-10-05T07:29:46.061Z,99.99
2016-10-05T07:30:46.038Z,99.99
2016-10-05T07:31:46.023Z,99.99
2016-10-05T07:32:46.010Z,99.99
2016-10-05T07:33:46.012Z,99.99
2016-10-05T07:34:45.994Z,99.99
2016-10-05T07:35:45.995Z,99.99
2016-10-05T07:36:45.964Z,99.99
2016-10-05T07:37:45.949Z,99.99
2016-10-05T07:38:45.937Z,99.99
2016-10-05T07:39:45.927Z,99.99
2016-10-05T07:40:45.928Z,99.99
2016-10-05T07:41:45.918Z,99.99
2016-10-05T07:42:45.900Z,99.99
2016-10-05T07:43:45.890Z,99.77
2016-10-05T07:44:45.892Z,99.58
2016-10-05T07:45:45.874Z,99.68
2016-10-05T07:46:45.857Z,99.39
2016-10-05T07:47:45.858Z,99.63
2016-10-05T07:48:45.842Z,99.01
2016-10-05T07:49:45.822Z,99.01
2016-10-05T07:50:45.817Z,98.91
2016-10-05T07:51:45.814Z,99.1
2016-10-05T07:52:45.783Z,99.2
2016-10-05T07:53:45.790Z,99.29
2016-10-05T07:54:45.765Z,99.29
2016-10-05T07:55:45.751Z,98.63
2016-10-05T07:56:45.755Z,98.82
2016-10-05T07:57:45.722Z,98.77
2016-10-05T07:58:45.711Z,98.72
2016-10-05T07:59:45.720Z,98.72
2016-10-05T08:00:45.702Z,98.77
2016-10-05T08:01:45.684Z,98.92
2016-10-05T08:02:45.685Z,98.44
2016-10-05T08:03:45.657Z,98.54
2016-10-05T08:04:45.646Z,98.59
2016-10-05T08:05:45.650Z,98.68
2016-10-05T08:06:45.630Z,98.21
2016-10-05T08:07:45.624Z,98.4
2016-10-05T08:08:45.624Z,98.73
2016-10-05T08:09:45.593Z,98.26
2016-10-05T08:10:45.595Z,98.26
2016-10-05T08:11:45.583Z,98.16
2016-10-05T08:12:45.572Z,97.78
2016-10-05T08:13:45.562Z,97.88
2016-10-05T08:14:45.535Z,97.5
2016-10-05T08:15:45.533Z,97.6
2016-10-05T08:16:45.523Z,97.88
2016-10-05T08:17:45.503Z,97.6
2016-10-05T08:18:45.493Z,97.64
2016-10-05T08:19:45.490Z,97.36
2016-10-05T08:20:45.472Z,97.36
2016-10-05T08:21:45.476Z,97.36
2016-10-05T08:22:45.471Z,97.17
2016-10-05T08:23:45.436Z,96.6
2016-10-05T08:24:45.734Z,96.79
2016-10-05T08:25:45.420Z,96.69
2016-10-05T08:26:45.417Z,96.41
2016-10-05T08:27:45.416Z,96.5
2016-10-05T08:28:45.390Z,96.6
2016-10-05T08:29:45.380Z,96.45
2016-10-05T08:30:45.379Z,96.17
2016-10-05T08:31:45.362Z,96.12
2016-10-05T08:32:45.359Z,96.12
2016-10-05T08:33:45.335Z,95.98
2016-10-05T08:34:45.345Z,95.79
2016-10-05T08:35:45.337Z,95.55
2016-10-05T08:36:45.323Z,95.84
2016-10-05T08:37:45.295Z,95.31
2016-10-05T08:38:45.292Z,95.69
2016-10-05T08:39:45.273Z,95.22
2016-10-05T08:40:45.272Z,95.55
2016-10-05T08:41:45.253Z,95.46
2016-10-05T08:42:45.261Z,94.89
2016-10-05T08:43:45.269Z,94.93
2016-10-05T08:44:45.220Z,95.22
2016-10-05T08:45:45.232Z,95.26
2016-10-05T08:46:45.222Z,94.32
2016-10-05T08:47:45.196Z,95.26
2016-10-05T08:48:45.180Z,94.32
2016-10-05T08:49:45.176Z,94.46
2016-10-05T08:50:45.166Z,94.56
2016-10-05T08:51:45.145Z,94.56
2016-10-05T08:52:45.142Z,94.37
2016-10-05T08:53:45.147Z,94.89
2016-10-05T08:54:45.136Z,94.79
2016-10-05T08:55:45.113Z,94.65
2016-10-05T08:56:45.094Z,94.37
2016-10-05T08:57:45.095Z,94.46
2016-10-05T08:58:45.072Z,93.94
2016-10-05T08:59:45.071Z,93.56
2016-10-05T09:00:45.053Z,93.94
2016-10-05T09:01:45.080Z,94.03
2016-10-05T09:02:45.048Z,93.46
2016-10-05T09:03:45.019Z,93.7
2016-10-05T09:04:45.034Z,93.7
2016-10-05T09:05:45.022Z,93.18
2016-10-05T09:06:45.013Z,93.41
2016-10-05T09:07:45.130Z,93.32
2016-10-05T09:08:44.970Z,93.18
2016-10-05T09:09:44.962Z,92.76
2016-10-05T09:10:44.964Z,92.66
2016-10-05T09:11:44.963Z,92.66
2016-10-05T09:12:44.961Z,92.85
2016-10-05T09:13:44.919Z,92.47
2016-10-05T09:14:44.932Z,93.27
2016-10-05T09:15:44.923Z,92.85
2016-10-05T09:16:44.901Z,92.56
2016-10-05T09:17:44.887Z,92.47
2016-10-05T09:18:44.892Z,93.04
2016-10-05T09:19:44.883Z,92.85
2016-10-05T09:20:44.851Z,92.94
2016-10-05T09:21:44.855Z,93.04
2016-10-05T09:22:44.845Z,92.85
2016-10-05T09:23:44.844Z,92.9
2016-10-05T09:24:44.812Z,93.04
2016-10-05T09:25:44.803Z,92.94
2016-10-05T09:26:44.793Z,92.56
2016-10-05T09:27:44.789Z,92.99
2016-10-05T09:28:44.773Z,92.71
2016-10-05T09:29:44.773Z,93.18
2016-10-05T09:30:44.758Z,92.9
2016-10-05T09:31:44.753Z,92.32
2016-10-05T09:32:44.739Z,92.51
2016-10-05T09:33:44.739Z,92.9
2016-10-05T09:34:44.739Z,92.32
2016-10-05T09:35:44.722Z,92.8
2016-10-05T09:36:44.715Z,92.32
2016-10-05T09:37:44.707Z,92.42
2016-10-05T09:38:44.694Z,92.9
2016-10-05T09:39:44.719Z,92.42
2016-10-05T09:40:44.677Z,92.75
2016-10-05T09:41:44.668Z,92.52
2016-10-05T09:42:44.662Z,92.71
2016-10-05T09:43:44.647Z,92.75
2016-10-05T09:44:44.643Z,93.04
2016-10-05T09:45:44.628Z,92.61
2016-10-05T09:46:44.603Z,93.08
2016-10-05T09:47:44.600Z,93.27
2016-10-05T09:48:44.592Z,93.13
2016-10-05T09:49:44.579Z,93.41
2016-10-05T09:50:44.570Z,93.23
2016-10-05T09:51:44.553Z,93.08
2016-10-05T09:52:44.543Z,93.18
2016-10-05T09:53:44.534Z,93.37
2016-10-05T09:54:44.527Z,93.37
2016-10-05T09:55:44.513Z,93.46
2016-10-05T09:56:44.516Z,93.37
2016-10-05T09:57:44.498Z,93.7
2016-10-05T09:58:44.481Z,93.56
2016-10-05T09:59:44.483Z,93.84
2016-10-05T10:00:44.471Z,93.75
2016-10-05T10:01:44.456Z,93.7
2016-10-05T10:02:44.445Z,93.61
2016-10-05T10:03:44.424Z,93.51
2016-10-05T10:04:44.428Z,93.7
2016-10-05T10:05:44.425Z,93.8
2016-10-05T10:06:44.415Z,93.75
2016-10-05T10:07:44.397Z,93.94
2016-10-05T10:08:44.383Z,94.13
2016-10-05T10:09:44.379Z,94.13
2016-10-05T10:10:44.362Z,94.03
2016-10-05T10:11:44.336Z,94.37
2016-10-05T10:12:44.330Z,94.27
2016-10-05T10:13:44.338Z,94.27
2016-10-05T10:14:44.323Z,94.42
2016-10-05T10:15:44.301Z,94.51
2016-10-05T10:16:44.303Z,94.18
2016-10-05T10:17:44.292Z,94.13
2016-10-05T10:18:44.282Z,94.23
2016-10-05T10:19:44.262Z,94.42
2016-10-05T10:20:44.253Z,94.32
2016-10-05T10:21:44.249Z,93.94
2016-10-05T10:22:44.242Z,93.7
2016-10-05T10:23:44.221Z,93.8
2016-10-05T10:24:44.200Z,94.27
2016-10-05T10:25:44.208Z,93.99
2016-10-05T10:26:44.175Z,94.46
2016-10-05T10:27:44.165Z,94.37
2016-10-05T10:28:44.176Z,94.13
2016-10-05T10:29:44.164Z,93.94
2016-10-05T10:30:44.134Z,94.23
2016-10-05T10:31:44.126Z,94.7
2016-10-05T10:32:44.111Z,94.23
2016-10-05T10:33:44.110Z,94.46
2016-10-05T10:34:44.111Z,94.46
2016-10-05T10:35:44.102Z,94.46
2016-10-05T10:36:44.093Z,94.37
2016-10-05T10:37:44.072Z,93.84
2016-10-05T10:38:44.370Z,93.8
2016-10-05T10:39:44.052Z,94.04
2016-10-05T10:40:44.039Z,94.32
2016-10-05T10:41:44.030Z,94.27
2016-10-05T10:42:44.020Z,94.23
2016-10-05T10:43:43.999Z,94.6
2016-10-05T10:44:44.000Z,94.13
2016-10-05T10:45:43.973Z,94.27
2016-10-05T10:46:43.962Z,94.56
2016-10-05T10:47:43.955Z,94.37
2016-10-05T10:48:43.951Z,94.56
2016-10-05T10:49:43.933Z,95.12
2016-10-05T10:50:43.929Z,94.7
2016-10-05T10:51:43.913Z,95.12
2016-10-05T10:52:44.180Z,94.93
2016-10-05T10:53:43.869Z,94.93
2016-10-05T10:54:43.868Z,94.93
2016-10-05T10:55:43.863Z,94.89
2016-10-05T10:56:43.833Z,95.12
2016-10-05T10:57:43.834Z,95.07
2016-10-05T10:58:43.827Z,95.03
2016-10-05T10:59:43.801Z,95.07
2016-10-05T11:00:43.782Z,94.98
2016-10-05T11:01:43.776Z,94.93
2016-10-05T11:02:43.762Z,94.93
2016-10-05T11:03:43.757Z,94.79
2016-10-05T11:04:43.743Z,94.6
2016-10-05T11:05:43.723Z,94.74
2016-10-05T11:06:43.708Z,94.46
2016-10-05T11:07:43.716Z,94.56
2016-10-05T11:08:43.685Z,95.21
2016-10-05T11:09:43.658Z,95.12
2016-10-05T11:10:43.663Z,94.98
2016-10-05T11:11:43.627Z,94.98
2016-10-05T11:12:43.612Z,94.7
2016-10-05T11:13:43.599Z,95.12
2016-10-05T11:14:43.588Z,94.65
2016-10-05T11:15:43.564Z,95.5
2016-10-05T11:16:43.546Z,95.21
2016-10-05T11:17:43.545Z,95.12
2016-10-05T11:18:43.512Z,95.4
2016-10-05T11:19:43.502Z,95.59
2016-10-05T11:20:43.499Z,95.92
2016-10-05T11:21:43.467Z,95.92
2016-10-05T11:22:43.466Z,96.02
2016-10-05T11:23:43.426Z,95.73
2016-10-05T11:24:43.432Z,96.02
2016-10-05T11:25:43.416Z,96.49
2016-10-05T11:26:43.386Z,96.4
2016-10-05T11:27:43.376Z,96.49
2016-10-05T11:28:43.344Z,96.21
2016-10-05T11:29:43.350Z,96.4
2016-10-05T11:30:43.315Z,96.68
2016-10-05T11:31:43.297Z,96.78
2016-10-05T11:32:43.302Z,96.83
2016-10-05T11:33:43.284Z,96.54
2016-10-05T11:34:43.256Z,96.92
2016-10-05T11:35:43.252Z,97.01
2016-10-05T11:36:43.239Z,97.34
2016-10-05T11:37:43.209Z,97.3
2016-10-05T11:38:43.203Z,97.3
2016-10-05T11:39:43.185Z,97.01
2016-10-05T11:40:43.175Z,97.3
2016-10-05T11:41:43.154Z,97.49
2016-10-05T11:42:43.454Z,97.67
2016-10-05T11:43:43.113Z,97.77
2016-10-05T11:44:43.421Z,98.29
2016-10-05T11:45:43.086Z,98.06
2016-10-05T11:46:43.070Z,98.11
2016-10-05T11:47:43.063Z,98.35
2016-10-05T11:48:43.044Z,98.11
2016-10-05T11:49:43.042Z,98.25
2016-10-05T11:50:43.013Z,97.97
2016-10-05T11:51:43.000Z,98.3
2016-10-05T11:52:42.993Z,98.25
2016-10-05T11:53:42.980Z,97.97
2016-10-05T11:54:42.961Z,98.02
2016-10-05T11:55:42.946Z,97.97
2016-10-05T11:56:42.926Z,97.78
2016-10-05T11:57:42.924Z,97.87
2016-10-05T11:58:42.899Z,97.87
2016-10-05T11:59:42.907Z,97.92
2016-10-05T12:00:42.880Z,97.82
2016-10-05T12:01:42.861Z,98.39
2016-10-05T12:02:42.869Z,98.06
2016-10-05T12:03:42.847Z,98.39
2016-10-05T12:04:42.841Z,98.58
2016-10-05T12:05:42.818Z,98.11
2016-10-05T12:06:42.803Z,98.21
2016-10-05T12:07:42.796Z,97.78
2016-10-05T12:08:42.769Z,98.11
2016-10-05T12:09:42.757Z,97.82
2016-10-05T12:10:42.967Z,98.39
2016-10-05T12:11:42.750Z,98.16
2016-10-05T12:12:42.738Z,98.3
2016-10-05T12:13:42.716Z,98.11
2016-10-05T12:14:42.712Z,98.35
2016-10-05T12:15:42.899Z,98.25
2016-10-05T12:16:42.673Z,98.25
2016-10-05T12:17:42.677Z,98.07
2016-10-05T12:18:42.964Z,98.07
2016-10-05T12:19:42.958Z,97.83
2016-10-05T12:20:42.630Z,97.87
2016-10-05T12:21:42.617Z,98.16
2016-10-05T12:22:42.592Z,97.87
2016-10-05T12:23:42.601Z,97.63
2016-10-05T12:24:42.571Z,97.58
2016-10-05T12:25:42.567Z,97.49
2016-10-05T12:26:42.543Z,97.91
2016-10-05T12:27:42.531Z,97.82
2016-10-05T12:28:42.526Z,97.82
2016-10-05T12:29:42.519Z,97.91
2016-10-05T12:30:42.485Z,97.72
2016-10-05T12:31:42.477Z,98.39
2016-10-05T12:32:42.477Z,98.2
2016-10-05T12:33:42.442Z,98.1
2016-10-05T12:34:42.441Z,98.01
2016-10-05T12:35:42.419Z,98.29
2016-10-05T12:36:42.398Z,97.82
2016-10-05T12:37:42.390Z,98.1
2016-10-05T12:38:42.378Z,97.96
2016-10-05T12:39:42.377Z,98.34
2016-10-05T12:40:42.352Z,98.06
2016-10-05T12:41:42.332Z,98.63
2016-10-05T12:42:42.329Z,97.96
2016-10-05T12:43:42.300Z,98.39
2016-10-05T12:44:42.300Z,97.91
2016-10-05T12:45:42.457Z,98.39
2016-10-05T12:46:42.278Z,98.67
2016-10-05T12:47:42.258Z,98.25
2016-10-05T12:48:42.228Z,98.34
2016-10-05T12:49:42.214Z,98.58
2016-10-05T12:50:42.208Z,98.53
2016-10-05T12:51:42.207Z,98.63
2016-10-05T12:52:42.180Z,98.72
2016-10-05T12:53:42.173Z,98.77